Time;durP1;ratioP1;P1;durP2;ratioP2;P2;SDS_P1;SDS_P2;PMS_P1;PMS_P2;Temp;Humidity;BMP_temperature;BMP_pressure;BME280_temperature;BME280_humidity;BME280_pressure;Samples;Min_cycle;Max_cycle;Signal;HPM_P1;HPM_P2
2021/03/27 00:01:12;;;;;;;12.48;9.27;;;;;;;;;;5104611;28;20540;-74
2021/03/27 00:03:47;;;;;;;11.20;9.15;;;;;;;;;;5095032;28;20253;-76
2021/03/27 00:06:15;;;;;;;12.07;10.07;;;;;;;;;;5113128;28;20264;-76
2021/03/27 00:08:55;;;;;;;10.63;9.52;;;;;;;;;;5113021;28;20197;-76
2021/03/27 00:11:32;;;;;;;14.30;10.20;;;;;;;;;;5104771;28;20258;-75
2021/03/27 00:14:00;;;;;;;13.30;9.25;;;;;;;;;;5092376;28;20163;-76
2021/03/27 00:16:35;;;;;;;10.13;9.13;;;;;;;;;;5096916;28;20243;-78
2021/03/27 00:19:11;;;;;;;9.77;8.77;;;;;;;;;;5103453;28;20508;-76
2021/03/27 00:21:47;;;;;;;11.25;10.07;;;;;;;;;;5104753;28;20237;-75
2021/03/27 00:24:19;;;;;;;11.05;9.88;;;;;;;;;;5100336;28;20258;-77
2021/03/27 00:26:50;;;;;;;11.02;9.27;;;;;;;;;;5113185;28;20179;-76
2021/03/27 00:29:29;;;;;;;10.95;9.77;;;;;;;;;;5097151;28;20212;-76
2021/03/27 00:32:00;;;;;;;12.93;9.85;;;;;;;;;;5094660;28;20184;-76
2021/03/27 00:34:29;;;;;;;12.27;10.00;;;;;;;;;;5095450;28;20191;-77
2021/03/27 00:36:57;;;;;;;10.80;9.77;;;;;;;;;;5101361;28;20606;-77
2021/03/27 00:39:25;;;;;;;10.25;9.10;;;;;;;;;;5093153;28;20585;-75
2021/03/27 00:41:54;;;;;;;10.32;9.27;;;;;;;;;;5092319;28;20263;-76
2021/03/27 00:44:24;;;;;;;11.13;9.88;;;;;;;;;;5097908;28;20207;-76
2021/03/27 00:46:51;;;;;;;11.98;9.30;;;;;;;;;;5091988;28;20179;-76
2021/03/27 00:49:21;;;;;;;10.38;8.95;;;;;;;;;;5091938;28;20551;-77
2021/03/27 00:51:50;;;;;;;11.65;9.70;;;;;;;;;;5095413;28;20176;-77
2021/03/27 00:54:28;;;;;;;11.98;9.30;;;;;;;;;;5095618;28;20190;-77
2021/03/27 00:56:55;;;;;;;11.18;9.43;;;;;;;;;;5096274;28;20180;-77
2021/03/27 00:59:26;;;;;;;10.70;9.43;;;;;;;;;;5105104;28;20220;-76
2021/03/27 01:01:54;;;;;;;11.23;9.93;;;;;;;;;;5101653;28;20176;-76
2021/03/27 01:04:20;;;;;;;10.88;9.77;;;;;;;;;;5105528;28;20581;-77
2021/03/27 01:06:51;;;;;;;11.45;10.25;;;;;;;;;;5116521;28;20236;-76
2021/03/27 01:09:19;;;;;;;12.50;11.05;;;;;;;;;;5116171;28;20206;-76
2021/03/27 01:11:55;;;;;;;13.00;11.60;;;;;;;;;;5103876;28;20633;-77
2021/03/27 01:14:23;;;;;;;12.02;10.75;;;;;;;;;;5093730;28;20737;-76
2021/03/27 01:16:57;;;;;;;12.55;11.35;;;;;;;;;;5103553;28;20186;-77
2021/03/27 01:19:29;;;;;;;12.23;11.02;;;;;;;;;;5102030;28;20190;-77
2021/03/27 01:21:57;;;;;;;11.93;10.65;;;;;;;;;;5104256;28;20183;-77
2021/03/27 01:24:25;;;;;;;12.00;10.70;;;;;;;;;;5098588;28;20210;-77
2021/03/27 01:27:14;;;;;;;12.10;10.90;;;;;;;;;;5095740;28;20647;-76
2021/03/27 01:29:48;;;;;;;12.95;11.52;;;;;;;;;;5093944;28;20371;-77
2021/03/27 01:32:22;;;;;;;12.07;10.82;;;;;;;;;;5097323;28;20621;-77
2021/03/27 01:35:02;;;;;;;14.13;11.90;;;;;;;;;;5098710;28;20253;-77
2021/03/27 01:37:32;;;;;;;13.18;11.45;;;;;;;;;;5112511;28;20182;-76
2021/03/27 01:39:58;;;;;;;12.30;10.73;;;;;;;;;;5111596;28;20624;-76
2021/03/27 01:42:37;;;;;;;12.38;10.82;;;;;;;;;;5101848;28;20535;-76
2021/03/27 01:45:21;;;;;;;10.88;9.77;;;;;;;;;;5113003;28;20201;-76
2021/03/27 01:47:57;;;;;;;13.63;10.50;;;;;;;;;;5106005;28;20187;-76
2021/03/27 01:50:23;;;;;;;11.60;10.40;;;;;;;;;;5097521;28;20248;-76
2021/03/27 01:52:57;;;;;;;11.55;10.38;;;;;;;;;;5105939;28;20189;-77
2021/03/27 01:55:37;;;;;;;13.75;10.30;;;;;;;;;;5094206;28;20285;-76
2021/03/27 01:58:23;;;;;;;11.70;9.93;;;;;;;;;;5095522;28;20174;-77
2021/03/27 02:00:51;;;;;;;14.82;10.15;;;;;;;;;;5086508;28;20194;-77
2021/03/27 02:03:28;;;;;;;11.88;10.68;;;;;;;;;;5095755;28;20552;-76
2021/03/27 02:06:17;;;;;;;13.10;10.00;;;;;;;;;;5115201;28;20289;-77
2021/03/27 02:08:46;;;;;;;10.40;9.25;;;;;;;;;;5113352;28;20272;-76
2021/03/27 02:11:18;;;;;;;13.60;10.07;;;;;;;;;;5094802;28;20231;-77
2021/03/27 02:13:58;;;;;;;11.10;9.95;;;;;;;;;;5094445;28;20198;-77
2021/03/27 02:16:31;;;;;;;10.80;9.80;;;;;;;;;;5097704;28;20531;-77
2021/03/27 02:19:09;;;;;;;11.70;10.50;;;;;;;;;;5096354;27;20188;-77
2021/03/27 02:21:53;;;;;;;11.43;9.93;;;;;;;;;;5094282;28;20205;-77
2021/03/27 02:24:19;;;;;;;11.32;9.20;;;;;;;;;;5108054;28;20195;-77
2021/03/27 02:26:51;;;;;;;11.63;9.25;;;;;;;;;;5094613;28;20182;-77
2021/03/27 02:29:31;;;;;;;14.50;10.10;;;;;;;;;;5094972;28;20211;-75
2021/03/27 02:32:00;;;;;;;10.18;9.13;;;;;;;;;;5094045;28;20182;-76
2021/03/27 02:34:41;;;;;;;10.93;9.93;;;;;;;;;;5099853;28;20192;-76
2021/03/27 02:37:10;;;;;;;11.55;8.55;;;;;;;;;;5094149;28;20190;-76
2021/03/27 02:39:45;;;;;;;15.30;8.70;;;;;;;;;;5094578;28;20228;-76
2021/03/27 02:42:17;;;;;;;10.15;8.73;;;;;;;;;;5093693;28;20187;-76
2021/03/27 02:44:57;;;;;;;11.52;8.70;;;;;;;;;;5093767;28;20244;-75
2021/03/27 02:47:23;;;;;;;11.23;8.60;;;;;;;;;;5110766;28;20627;-75
2021/03/27 02:49:53;;;;;;;9.87;8.53;;;;;;;;;;5106456;28;20199;-76
2021/03/27 02:52:19;;;;;;;9.90;8.90;;;;;;;;;;5093690;28;20422;-75
2021/03/27 02:54:48;;;;;;;9.80;8.80;;;;;;;;;;5093262;28;20645;-76
2021/03/27 02:57:20;;;;;;;8.98;8.13;;;;;;;;;;5108329;28;20428;-77
2021/03/27 02:59:49;;;;;;;12.38;8.90;;;;;;;;;;5093770;28;20171;-77
2021/03/27 03:02:21;;;;;;;12.98;9.02;;;;;;;;;;5096524;28;20176;-76
2021/03/27 03:05:07;;;;;;;11.25;8.80;;;;;;;;;;5107523;28;20242;-76
2021/03/27 03:07:42;;;;;;;10.60;9.43;;;;;;;;;;5114167;28;20640;-76
2021/03/27 03:10:27;;;;;;;10.25;9.23;;;;;;;;;;5108970;28;20198;-75
2021/03/27 03:13:00;;;;;;;11.45;9.55;;;;;;;;;;5093038;28;20211;-76
2021/03/27 03:15:26;;;;;;;10.40;8.02;;;;;;;;;;5093284;28;20199;-75
2021/03/27 03:18:10;;;;;;;11.90;8.50;;;;;;;;;;5095199;28;20183;-76
2021/03/27 03:20:39;;;;;;;11.45;8.82;;;;;;;;;;5107595;28;20427;-76
2021/03/27 03:23:07;;;;;;;9.77;8.88;;;;;;;;;;5093384;28;20179;-77
2021/03/27 03:25:35;;;;;;;10.23;8.70;;;;;;;;;;5105227;28;20198;-75
2021/03/27 03:28:10;;;;;;;9.68;8.75;;;;;;;;;;5108461;28;20178;-76
2021/03/27 03:30:51;;;;;;;10.40;9.30;;;;;;;;;;5093271;28;20199;-76
2021/03/27 03:33:44;;;;;;;11.20;9.10;;;;;;;;;;5098903;28;20223;-76
2021/03/27 03:36:11;;;;;;;10.55;9.45;;;;;;;;;;5077569;28;20214;-76
2021/03/27 03:38:46;;;;;;;11.55;9.52;;;;;;;;;;5091685;28;20182;-76
2021/03/27 03:41:38;;;;;;;11.25;9.75;;;;;;;;;;5079796;28;20179;-75
2021/03/27 03:44:08;;;;;;;10.27;9.32;;;;;;;;;;5097085;28;20193;-76
2021/03/27 03:46:48;;;;;;;11.20;9.85;;;;;;;;;;5113399;28;20187;-76
2021/03/27 03:49:29;;;;;;;10.50;9.40;;;;;;;;;;5109554;28;20203;-76
2021/03/27 03:51:58;;;;;;;9.60;7.95;;;;;;;;;;5092955;28;20251;-77
2021/03/27 03:54:33;;;;;;;9.30;8.43;;;;;;;;;;5093266;28;20198;-77
2021/03/27 03:57:20;;;;;;;11.30;8.88;;;;;;;;;;5092806;28;20171;-77
2021/03/27 03:59:53;;;;;;;9.20;8.20;;;;;;;;;;5089143;28;20198;-77
2021/03/27 04:02:34;;;;;;;9.98;8.98;;;;;;;;;;5093676;28;20186;-77
2021/03/27 04:05:07;;;;;;;11.05;9.15;;;;;;;;;;5107473;28;20241;-75
2021/03/27 04:07:38;;;;;;;12.13;9.05;;;;;;;;;;5106313;28;20530;-76
2021/03/27 04:10:10;;;;;;;10.70;9.23;;;;;;;;;;5092843;28;20226;-76
2021/03/27 04:12:40;;;;;;;16.88;10.45;;;;;;;;;;5092602;28;20184;-77
2021/03/27 04:15:07;;;;;;;11.52;10.32;;;;;;;;;;5102384;28;20190;-76
2021/03/27 04:18:11;;;;;;;11.73;10.52;;;;;;;;;;5111298;28;20235;-77
2021/03/27 04:20:46;;;;;;;10.50;9.27;;;;;;;;;;5041383;28;20197;-77
2021/03/27 04:23:17;;;;;;;10.27;9.00;;;;;;;;;;5055263;28;20188;-75
2021/03/27 04:25:48;;;;;;;10.65;9.15;;;;;;;;;;5067285;28;20216;-77
2021/03/27 04:28:30;;;;;;;10.75;9.65;;;;;;;;;;5095980;28;20170;-76
2021/03/27 04:31:05;;;;;;;10.98;9.85;;;;;;;;;;5098988;28;20278;-76
2021/03/27 04:33:43;;;;;;;10.45;9.40;;;;;;;;;;5095676;28;20175;-77
2021/03/27 04:36:18;;;;;;;11.30;9.10;;;;;;;;;;5096906;28;20278;-76
2021/03/27 04:38:51;;;;;;;9.52;8.30;;;;;;;;;;5096382;28;20180;-78
2021/03/27 04:41:38;;;;;;;9.95;7.70;;;;;;;;;;5086143;28;20180;-75
2021/03/27 04:44:16;;;;;;;8.73;7.32;;;;;;;;;;5096188;28;20175;-77
2021/03/27 04:46:46;;;;;;;7.60;4.72;;;;;;;;;;5096137;28;20214;-78
2021/03/27 04:49:35;;;;;;;5.15;4.45;;;;;;;;;;5115526;28;20182;-75
2021/03/27 04:52:07;;;;;;;4.22;3.80;;;;;;;;;;5102414;28;20215;-76
2021/03/27 04:54:40;;;;;;;4.40;3.90;;;;;;;;;;5096096;28;20261;-77
2021/03/27 04:57:08;;;;;;;3.60;3.05;;;;;;;;;;5108551;28;20171;-77
2021/03/27 04:59:47;;;;;;;7.70;4.47;;;;;;;;;;5096723;28;20207;-75
2021/03/27 05:02:15;;;;;;;5.22;3.60;;;;;;;;;;5097425;28;20187;-78
2021/03/27 05:04:56;;;;;;;3.40;2.95;;;;;;;;;;5109303;28;20210;-76
2021/03/27 05:07:33;;;;;;;3.30;2.72;;;;;;;;;;5116591;28;20170;-76
2021/03/27 05:10:05;;;;;;;3.47;2.70;;;;;;;;;;5092431;28;20209;-78
2021/03/27 05:12:50;;;;;;;3.42;2.30;;;;;;;;;;5095915;28;20172;-75
2021/03/27 05:15:34;;;;;;;4.15;2.70;;;;;;;;;;5095653;28;20277;-78
2021/03/27 05:18:08;;;;;;;5.45;2.35;;;;;;;;;;5111954;28;20175;-74
2021/03/27 05:20:38;;;;;;;2.97;2.50;;;;;;;;;;5113453;28;20182;-76
2021/03/27 05:23:15;;;;;;;2.92;2.40;;;;;;;;;;5101164;28;20266;-75
2021/03/27 05:26:01;;;;;;;3.20;2.25;;;;;;;;;;5108118;28;20236;-78
2021/03/27 05:28:28;;;;;;;3.80;2.42;;;;;;;;;;5084060;28;20183;-75
2021/03/27 05:31:00;;;;;;;3.30;2.78;;;;;;;;;;5097273;28;20202;-74
2021/03/27 05:33:47;;;;;;;3.03;2.53;;;;;;;;;;5094801;28;20183;-77
2021/03/27 05:36:27;;;;;;;3.03;2.70;;;;;;;;;;5114889;28;20250;-75
2021/03/27 05:38:53;;;;;;;4.78;3.33;;;;;;;;;;5111958;28;20170;-75
2021/03/27 05:41:38;;;;;;;3.83;3.10;;;;;;;;;;5108041;28;20182;-76
2021/03/27 05:44:22;;;;;;;3.55;3.17;;;;;;;;;;5094957;28;20786;-75
2021/03/27 05:46:51;;;;;;;3.80;3.30;;;;;;;;;;5095199;28;20183;-74
2021/03/27 05:49:38;;;;;;;4.03;3.22;;;;;;;;;;5099833;28;20644;-75
2021/03/27 05:52:15;;;;;;;6.40;3.10;;;;;;;;;;5097495;28;20172;-74
2021/03/27 05:54:41;;;;;;;3.60;3.17;;;;;;;;;;5102213;28;20203;-76
2021/03/27 05:57:39;;;;;;;4.32;3.17;;;;;;;;;;5095217;28;20175;-78
2021/03/27 06:00:13;;;;;;;4.53;2.90;;;;;;;;;;5081443;28;20184;-76
2021/03/27 06:02:41;;;;;;;3.90;3.50;;;;;;;;;;5115866;28;20620;-78
2021/03/27 06:05:26;;;;;;;6.60;3.70;;;;;;;;;;5114889;28;20275;-75
2021/03/27 06:08:03;;;;;;;3.90;3.30;;;;;;;;;;5106412;28;20184;-76
2021/03/27 06:10:38;;;;;;;4.50;3.60;;;;;;;;;;5082343;28;20206;-76
2021/03/27 06:13:20;;;;;;;5.05;3.92;;;;;;;;;;5094110;28;20262;-74
2021/03/27 06:16:01;;;;;;;6.40;4.53;;;;;;;;;;5084656;28;20540;-76
2021/03/27 06:18:42;;;;;;;4.90;4.32;;;;;;;;;;5114557;28;20257;-75
2021/03/27 06:21:14;;;;;;;4.70;4.20;;;;;;;;;;5099092;28;20636;-74
2021/03/27 06:23:59;;;;;;;5.15;3.83;;;;;;;;;;5094563;28;20214;-76
2021/03/27 06:26:43;;;;;;;4.97;3.67;;;;;;;;;;5096068;28;20221;-78
2021/03/27 06:29:28;;;;;;;4.72;3.92;;;;;;;;;;5088111;28;20258;-73
2021/03/27 06:32:09;;;;;;;5.57;4.15;;;;;;;;;;5094291;28;20182;-75
2021/03/27 06:34:35;;;;;;;5.10;4.60;;;;;;;;;;5113154;28;20205;-77
2021/03/27 06:37:19;;;;;;;5.40;4.40;;;;;;;;;;5114881;28;20574;-75
2021/03/27 06:40:04;;;;;;;4.95;4.40;;;;;;;;;;5114803;28;20389;-75
2021/03/27 06:42:48;;;;;;;6.38;5.30;;;;;;;;;;5113247;28;20197;-76
2021/03/27 06:45:14;;;;;;;5.60;4.45;;;;;;;;;;5094952;28;20195;-75
2021/03/27 06:47:43;;;;;;;5.43;4.20;;;;;;;;;;5093849;28;20202;-76
2021/03/27 06:50:32;;;;;;;5.65;5.05;;;;;;;;;;5093830;28;20520;-76
2021/03/27 06:53:07;;;;;;;5.93;5.32;;;;;;;;;;5088273;28;20191;-74
2021/03/27 06:55:52;;;;;;;7.75;5.88;;;;;;;;;;5093803;28;20275;-74
2021/03/27 06:58:33;;;;;;;6.95;5.68;;;;;;;;;;5107860;28;20175;-76
2021/03/27 07:01:16;;;;;;;6.65;5.65;;;;;;;;;;5114254;28;20182;-74
2021/03/27 07:04:12;;;;;;;6.95;5.53;;;;;;;;;;5113811;28;20572;-74
2021/03/27 07:06:43;;;;;;;7.25;6.43;;;;;;;;;;5114285;28;20191;-75
2021/03/27 07:09:28;;;;;;;7.38;5.97;;;;;;;;;;5114237;28;20175;-74
2021/03/27 07:11:54;;;;;;;7.53;6.25;;;;;;;;;;5114199;28;20253;-74
2021/03/27 07:14:46;;;;;;;7.20;5.83;;;;;;;;;;5104834;27;20195;-74
2021/03/27 07:17:12;;;;;;;8.68;6.85;;;;;;;;;;5083098;28;20402;-75
2021/03/27 07:19:41;;;;;;;16.03;7.27;;;;;;;;;;5093684;28;20181;-74
2021/03/27 07:22:20;;;;;;;11.48;7.00;;;;;;;;;;5093770;28;20415;-75
2021/03/27 07:24:49;;;;;;;11.68;7.43;;;;;;;;;;5092279;28;20571;-76
2021/03/27 07:27:33;;;;;;;10.80;7.68;;;;;;;;;;5094072;28;20172;-73
2021/03/27 07:30:11;;;;;;;10.30;7.32;;;;;;;;;;5093472;28;20206;-74
2021/03/27 07:33:04;;;;;;;9.82;6.28;;;;;;;;;;5093630;28;20194;-76
2021/03/27 07:35:49;;;;;;;7.97;6.05;;;;;;;;;;5093511;28;20202;-76
2021/03/27 07:38:21;;;;;;;7.80;4.97;;;;;;;;;;5093400;28;20175;-75
2021/03/27 07:41:08;;;;;;;5.30;3.50;;;;;;;;;;5093428;28;20183;-74
2021/03/27 07:43:49;;;;;;;4.32;3.33;;;;;;;;;;5092981;28;20191;-73
2021/03/27 07:46:28;;;;;;;4.22;3.25;;;;;;;;;;5080601;28;20292;-74
2021/03/27 07:48:54;;;;;;;6.55;4.72;;;;;;;;;;5094953;28;20243;-75
2021/03/27 07:51:30;;;;;;;6.30;3.50;;;;;;;;;;5091245;28;20237;-74
2021/03/27 07:54:14;;;;;;;5.63;4.20;;;;;;;;;;5092862;28;20413;-77
2021/03/27 07:56:40;;;;;;;4.75;3.65;;;;;;;;;;5093192;28;20178;-74
2021/03/27 07:59:22;;;;;;;5.35;4.65;;;;;;;;;;5093327;28;20233;-76
2021/03/27 08:02:00;;;;;;;5.80;4.30;;;;;;;;;;5097216;28;20173;-76
2021/03/27 08:04:45;;;;;;;4.70;3.78;;;;;;;;;;5096965;28;20302;-75
2021/03/27 08:07:14;;;;;;;5.30;4.22;;;;;;;;;;5099215;28;20171;-77
2021/03/27 08:09:58;;;;;;;4.32;3.78;;;;;;;;;;5098356;28;20187;-74
2021/03/27 08:12:39;;;;;;;8.65;4.15;;;;;;;;;;5098484;28;20195;-75
2021/03/27 08:15:05;;;;;;;6.90;4.55;;;;;;;;;;5098188;28;20197;-77
2021/03/27 08:17:44;;;;;;;5.50;4.70;;;;;;;;;;5098463;28;20235;-76
2021/03/27 08:20:29;;;;;;;9.15;5.20;;;;;;;;;;5097948;28;20461;-76
2021/03/27 08:23:10;;;;;;;8.32;5.15;;;;;;;;;;5122908;28;20179;-76
2021/03/27 08:25:37;;;;;;;6.20;5.20;;;;;;;;;;5119287;28;20222;-74
2021/03/27 08:28:11;;;;;;;8.40;5.22;;;;;;;;;;5121603;28;20179;-70
2021/03/27 08:30:56;;;;;;;9.57;5.90;;;;;;;;;;5131912;28;20201;-71
2021/03/27 08:33:40;;;;;;;8.00;5.68;;;;;;;;;;5134337;28;20160;-71
2021/03/27 08:36:15;;;;;;;13.98;7.20;;;;;;;;;;5117658;28;20203;-71
2021/03/27 08:39:00;;;;;;;8.90;7.35;;;;;;;;;;5114220;28;20175;-69
2021/03/27 08:41:41;;;;;;;10.85;7.18;;;;;;;;;;5114307;28;20588;-72
2021/03/27 08:44:13;;;;;;;8.77;6.93;;;;;;;;;;5101549;28;20803;-72
2021/03/27 08:46:42;;;;;;;10.75;7.70;;;;;;;;;;5102060;28;20183;-74
2021/03/27 08:49:14;;;;;;;13.25;8.40;;;;;;;;;;5101139;28;20190;-74
2021/03/27 08:51:40;;;;;;;11.90;8.38;;;;;;;;;;5088725;28;20179;-74
2021/03/27 08:54:36;;;;;;;10.17;8.10;;;;;;;;;;5099160;28;20184;-75
2021/03/27 08:57:20;;;;;;;8.13;7.30;;;;;;;;;;5084316;28;20432;-73
2021/03/27 09:00:02;;;;;;;9.30;7.75;;;;;;;;;;5097001;28;20187;-75
2021/03/27 09:02:47;;;;;;;10.88;7.50;;;;;;;;;;5096726;28;20180;-73
2021/03/27 09:05:32;;;;;;;9.52;7.18;;;;;;;;;;5100938;28;20229;-73
2021/03/27 09:08:01;;;;;;;13.43;6.70;;;;;;;;;;5117347;28;20190;-75
2021/03/27 09:10:41;;;;;;;8.93;7.05;;;;;;;;;;5116842;28;20217;-75
2021/03/27 09:13:17;;;;;;;13.90;6.88;;;;;;;;;;5116705;28;20547;-75
2021/03/27 09:16:01;;;;;;;8.25;6.20;;;;;;;;;;5086938;28;20195;-75
2021/03/27 09:18:46;;;;;;;7.50;6.75;;;;;;;;;;5103465;28;20185;-75
2021/03/27 09:21:15;;;;;;;7.82;6.28;;;;;;;;;;5115170;28;20302;-76
2021/03/27 09:23:50;;;;;;;9.18;6.40;;;;;;;;;;5106989;28;20232;-76
2021/03/27 09:26:21;;;;;;;5.68;5.05;;;;;;;;;;5098144;28;20207;-75
2021/03/27 09:29:19;;;;;;;11.18;6.05;;;;;;;;;;5095999;28;20676;-77
2021/03/27 09:32:00;;;;;;;8.52;5.63;;;;;;;;;;5093727;28;20240;-75
2021/03/27 09:34:39;;;;;;;7.50;5.40;;;;;;;;;;5094788;27;20207;-75
2021/03/27 09:37:05;;;;;;;6.82;4.50;;;;;;;;;;5091570;28;20190;-76
2021/03/27 09:39:36;;;;;;;7.00;4.93;;;;;;;;;;5078398;28;20175;-76
2021/03/27 09:42:07;;;;;;;8.10;6.20;;;;;;;;;;5091676;28;20421;-76
2021/03/27 09:44:36;;;;;;;9.57;5.60;;;;;;;;;;5091965;28;20191;-76
2021/03/27 09:47:21;;;;;;;4.88;3.97;;;;;;;;;;5093053;28;20187;-76
2021/03/27 09:50:06;;;;;;;5.13;4.22;;;;;;;;;;5102262;28;20304;-77
2021/03/27 09:52:47;;;;;;;4.60;4.20;;;;;;;;;;5082951;28;20651;-78
2021/03/27 09:55:22;;;;;;;6.82;4.70;;;;;;;;;;5091338;28;20581;-76
2021/03/27 09:58:04;;;;;;;6.95;4.80;;;;;;;;;;5091663;28;20597;-77
2021/03/27 10:00:42;;;;;;;6.50;5.60;;;;;;;;;;5091452;28;20182;-75
2021/03/27 10:03:27;;;;;;;7.43;6.10;;;;;;;;;;5104755;28;20543;-77
2021/03/27 10:05:53;;;;;;;8.23;5.95;;;;;;;;;;5100387;28;20210;-76
2021/03/27 10:08:28;;;;;;;7.00;5.57;;;;;;;;;;5111741;28;20183;-76
2021/03/27 10:10:56;;;;;;;7.50;6.30;;;;;;;;;;5100980;28;20464;-76
2021/03/27 10:13:41;;;;;;;6.05;5.35;;;;;;;;;;5090657;28;20179;-75
2021/03/27 10:16:13;;;;;;;34.50;25.42;;;;;;;;;;5092677;28;20567;-75
2021/03/27 10:18:39;;;;;;;7.30;5.88;;;;;;;;;;5078316;28;20180;-74
2021/03/27 10:21:14;;;;;;;4.20;3.42;;;;;;;;;;5091215;28;20186;-76
2021/03/27 10:23:49;;;;;;;4.18;3.70;;;;;;;;;;5091975;28;20212;-72
2021/03/27 10:26:36;;;;;;;5.55;4.82;;;;;;;;;;5094756;28;20245;-75
2021/03/27 10:29:11;;;;;;;6.75;5.30;;;;;;;;;;5086606;28;20320;-74
2021/03/27 10:31:44;;;;;;;6.80;6.05;;;;;;;;;;5094009;28;20224;-75
2021/03/27 10:34:29;;;;;;;12.95;11.73;;;;;;;;;;5110883;28;20179;-75
2021/03/27 10:37:10;;;;;;;4.78;4.35;;;;;;;;;;5103373;28;20278;-77
2021/03/27 10:39:39;;;;;;;4.10;3.33;;;;;;;;;;5110916;28;20179;-74
2021/03/27 10:42:29;;;;;;;8.88;6.93;;;;;;;;;;5102993;28;20236;-75
2021/03/27 10:45:06;;;;;;;6.63;5.20;;;;;;;;;;5079757;28;20202;-75
2021/03/27 10:47:47;;;;;;;6.57;4.07;;;;;;;;;;5103036;28;20183;-73
2021/03/27 10:50:18;;;;;;;4.10;3.70;;;;;;;;;;5090592;28;20206;-74
2021/03/27 10:52:58;;;;;;;7.43;4.30;;;;;;;;;;5090372;28;20187;-76
2021/03/27 10:55:48;;;;;;;4.32;3.03;;;;;;;;;;5090261;28;20858;-75
2021/03/27 10:58:14;;;;;;;3.50;3.10;;;;;;;;;;5084044;28;20548;-75
2021/03/27 11:00:58;;;;;;;4.17;3.30;;;;;;;;;;5090180;28;20187;-75
2021/03/27 11:03:27;;;;;;;4.10;2.78;;;;;;;;;;5089787;28;20403;-76
2021/03/27 11:05:59;;;;;;;4.22;2.50;;;;;;;;;;5090153;28;20211;-73
2021/03/27 11:08:41;;;;;;;3.75;2.60;;;;;;;;;;5107784;28;20315;-76
2021/03/27 11:11:19;;;;;;;4.03;2.58;;;;;;;;;;5102129;28;20210;-74
2021/03/27 11:13:58;;;;;;;4.05;3.38;;;;;;;;;;5077434;28;20199;-76
2021/03/27 11:16:33;;;;;;;5.65;3.20;;;;;;;;;;5099101;28;20773;-76
2021/03/27 11:19:12;;;;;;;4.13;3.50;;;;;;;;;;5107754;28;20203;-76
2021/03/27 11:21:38;;;;;;;3.97;3.20;;;;;;;;;;5090367;28;20637;-76
2021/03/27 11:24:24;;;;;;;5.00;3.20;;;;;;;;;;5097606;28;20273;-75
2021/03/27 11:27:09;;;;;;;8.30;3.17;;;;;;;;;;5077931;28;20930;-75
2021/03/27 11:29:35;;;;;;;3.72;3.20;;;;;;;;;;5089695;28;20214;-75
2021/03/27 11:32:09;;;;;;;5.15;3.08;;;;;;;;;;5089813;28;20237;-74
2021/03/27 11:34:47;;;;;;;4.28;2.70;;;;;;;;;;5102634;28;20248;-75
2021/03/27 11:37:19;;;;;;;5.00;3.03;;;;;;;;;;5089519;28;20175;-75
2021/03/27 11:39:48;;;;;;;5.10;3.00;;;;;;;;;;5089387;28;20180;-74
2021/03/27 11:42:26;;;;;;;4.95;2.80;;;;;;;;;;5104771;28;20210;-75
2021/03/27 11:45:03;;;;;;;6.40;3.45;;;;;;;;;;5101443;28;20195;-75
2021/03/27 11:47:46;;;;;;;3.50;2.70;;;;;;;;;;5098481;28;20772;-76
2021/03/27 11:50:34;;;;;;;12.07;5.35;;;;;;;;;;5101061;28;20210;-73
2021/03/27 11:53:09;;;;;;;4.15;2.83;;;;;;;;;;5089029;28;20180;-76
2021/03/27 11:55:37;;;;;;;30.83;15.85;;;;;;;;;;5094745;28;20689;-76
2021/03/27 11:58:21;;;;;;;5.88;4.95;;;;;;;;;;5102598;28;20210;-76
2021/03/27 12:01:01;;;;;;;4.05;3.40;;;;;;;;;;5077423;28;20188;-76
2021/03/27 12:03:39;;;;;;;3.60;2.50;;;;;;;;;;5091785;28;20174;-75
2021/03/27 12:06:05;;;;;;;10.35;7.57;;;;;;;;;;5108447;28;20305;-76
2021/03/27 12:08:50;;;;;;;5.87;4.40;;;;;;;;;;5099889;28;20274;-76
2021/03/27 12:11:24;;;;;;;5.28;2.22;;;;;;;;;;5089387;28;20460;-77
2021/03/27 12:14:02;;;;;;;5.30;1.83;;;;;;;;;;5092091;28;20582;-76
2021/03/27 12:16:39;;;;;;;4.07;1.45;;;;;;;;;;5089546;28;20255;-77
2021/03/27 12:19:14;;;;;;;4.28;1.73;;;;;;;;;;5100058;28;20182;-75
2021/03/27 12:21:45;;;;;;;6.00;1.73;;;;;;;;;;5109914;28;20211;-76
2021/03/27 12:24:29;;;;;;;3.97;1.35;;;;;;;;;;5091442;28;20188;-77
2021/03/27 12:27:04;;;;;;;2.22;1.40;;;;;;;;;;5087846;28;20182;-76
2021/03/27 12:29:33;;;;;;;10.95;6.50;;;;;;;;;;5090606;28;20257;-76
2021/03/27 12:32:18;;;;;;;3.50;2.00;;;;;;;;;;5089356;28;20179;-76
2021/03/27 12:34:50;;;;;;;7.28;2.08;;;;;;;;;;5088556;28;20226;-77
2021/03/27 12:37:22;;;;;;;11.57;2.55;;;;;;;;;;5089800;28;20636;-75
2021/03/27 12:40:04;;;;;;;10.70;2.60;;;;;;;;;;5088277;28;20266;-76
2021/03/27 12:42:35;;;;;;;7.40;2.95;;;;;;;;;;5089149;28;20183;-75
2021/03/27 12:45:04;;;;;;;12.57;3.67;;;;;;;;;;5100484;28;20195;-75
2021/03/27 12:47:36;;;;;;;9.10;2.50;;;;;;;;;;5091734;28;20191;-78
2021/03/27 12:50:10;;;;;;;6.05;2.72;;;;;;;;;;5092893;28;20203;-75
2021/03/27 12:53:04;;;;;;;5.13;2.67;;;;;;;;;;5100093;28;20534;-76
2021/03/27 12:55:38;;;;;;;7.93;2.55;;;;;;;;;;5094465;28;20282;-74
2021/03/27 12:58:11;;;;;;;8.18;2.58;;;;;;;;;;5092712;28;20196;-75
2021/03/27 13:00:43;;;;;;;5.10;2.63;;;;;;;;;;5092488;28;20214;-75
2021/03/27 13:03:21;;;;;;;9.02;3.13;;;;;;;;;;5106280;28;20657;-76
2021/03/27 13:05:55;;;;;;;8.90;4.83;;;;;;;;;;5109697;28;20223;-76
2021/03/27 13:08:37;;;;;;;12.50;4.30;;;;;;;;;;5092572;28;20421;-76
2021/03/27 13:11:24;;;;;;;8.75;3.88;;;;;;;;;;5092358;28;20461;-76
2021/03/27 13:13:53;;;;;;;7.90;4.88;;;;;;;;;;5079962;28;20175;-75
2021/03/27 13:16:19;;;;;;;15.63;5.60;;;;;;;;;;5100650;28;20199;-74
2021/03/27 13:19:04;;;;;;;10.17;3.60;;;;;;;;;;5092406;28;20225;-76
2021/03/27 13:21:34;;;;;;;6.60;3.15;;;;;;;;;;5096080;28;20416;-77
2021/03/27 13:24:14;;;;;;;7.30;3.60;;;;;;;;;;5101196;28;20175;-75
2021/03/27 13:26:41;;;;;;;6.07;3.97;;;;;;;;;;5086815;28;20182;-76
2021/03/27 13:29:39;;;;;;;7.13;4.05;;;;;;;;;;5106393;28;20183;-77
2021/03/27 13:32:21;;;;;;;8.95;3.65;;;;;;;;;;5091360;28;20202;-75
2021/03/27 13:34:47;;;;;;;7.28;3.85;;;;;;;;;;5078463;28;20206;-75
2021/03/27 13:37:15;;;;;;;6.53;3.60;;;;;;;;;;5092025;28;20240;-76
2021/03/27 13:39:49;;;;;;;6.57;2.97;;;;;;;;;;5104753;28;20906;-74
2021/03/27 13:42:24;;;;;;;6.97;3.15;;;;;;;;;;5090253;28;20650;-74
2021/03/27 13:45:01;;;;;;;9.70;6.40;;;;;;;;;;5090674;28;20192;-76
2021/03/27 13:47:31;;;;;;;5.25;3.83;;;;;;;;;;5091618;28;20183;-76
2021/03/27 13:50:04;;;;;;;5.80;3.60;;;;;;;;;;5091345;28;20305;-74
2021/03/27 13:52:30;;;;;;;10.68;3.47;;;;;;;;;;5099099;28;20179;-75
2021/03/27 13:55:16;;;;;;;8.30;3.20;;;;;;;;;;5091124;28;20700;-77
2021/03/27 13:57:47;;;;;;;6.43;3.10;;;;;;;;;;5088640;28;20432;-77
2021/03/27 14:00:28;;;;;;;8.15;3.40;;;;;;;;;;5093996;28;20217;-75
2021/03/27 14:03:05;;;;;;;8.02;3.47;;;;;;;;;;5111699;28;20186;-76
2021/03/27 14:05:31;;;;;;;5.90;3.00;;;;;;;;;;5097415;27;20213;-76
2021/03/27 14:08:26;;;;;;;7.55;4.15;;;;;;;;;;5110520;28;20186;-76
2021/03/27 14:10:54;;;;;;;6.32;3.72;;;;;;;;;;5073440;28;20219;-76
2021/03/27 14:13:26;;;;;;;8.40;3.28;;;;;;;;;;5094457;28;20199;-77
2021/03/27 14:16:00;;;;;;;6.57;3.55;;;;;;;;;;5091085;28;20491;-76
2021/03/27 14:18:40;;;;;;;8.27;3.55;;;;;;;;;;5091124;28;20175;-75
2021/03/27 14:21:15;;;;;;;12.52;3.88;;;;;;;;;;5091725;28;20204;-75
2021/03/27 14:24:00;;;;;;;10.75;3.45;;;;;;;;;;5087170;28;20179;-75
2021/03/27 14:26:29;;;;;;;14.32;5.65;;;;;;;;;;5105332;28;20190;-76
2021/03/27 14:28:57;;;;;;;9.60;4.57;;;;;;;;;;5100533;28;20202;-73
2021/03/27 14:31:36;;;;;;;14.02;4.45;;;;;;;;;;5090917;28;20281;-76
2021/03/27 14:34:20;;;;;;;6.93;4.07;;;;;;;;;;5085310;28;20178;-75
2021/03/27 14:36:46;;;;;;;7.60;3.78;;;;;;;;;;5089667;28;20179;-76
2021/03/27 14:39:24;;;;;;;6.83;3.73;;;;;;;;;;5094900;28;20219;-75
2021/03/27 14:41:50;;;;;;;18.38;8.65;;;;;;;;;;5086087;28;20423;-76
2021/03/27 14:44:35;;;;;;;7.07;3.70;;;;;;;;;;5096223;28;20213;-81
2021/03/27 14:47:19;;;;;;;5.72;3.25;;;;;;;;;;5109146;28;20400;-75
2021/03/27 14:49:55;;;;;;;7.32;2.95;;;;;;;;;;5090640;28;20183;-73
2021/03/27 14:52:27;;;;;;;6.65;3.15;;;;;;;;;;5082435;28;20210;-74
2021/03/27 14:55:11;;;;;;;6.15;3.10;;;;;;;;;;5095112;28;20315;-73
2021/03/27 14:57:43;;;;;;;6.10;2.70;;;;;;;;;;5090329;28;20207;-74
2021/03/27 15:00:21;;;;;;;6.30;3.30;;;;;;;;;;5090184;28;20183;-77
2021/03/27 15:02:56;;;;;;;8.70;3.60;;;;;;;;;;5092884;28;20938;-75
2021/03/27 15:05:24;;;;;;;11.52;3.33;;;;;;;;;;5099851;28;20245;-76
2021/03/27 15:08:00;;;;;;;7.38;3.90;;;;;;;;;;5090231;28;20194;-76
2021/03/27 15:10:40;;;;;;;11.77;3.80;;;;;;;;;;5088694;28;20682;-77
2021/03/27 15:13:06;;;;;;;10.60;3.88;;;;;;;;;;5077989;28;20872;-76
2021/03/27 15:15:32;;;;;;;11.43;3.47;;;;;;;;;;5090993;28;20231;-74
2021/03/27 15:18:02;;;;;;;7.10;3.65;;;;;;;;;;5110461;28;20394;-74
2021/03/27 15:20:48;;;;;;;12.10;3.30;;;;;;;;;;5104570;28;20190;-75
2021/03/27 15:23:32;;;;;;;9.18;2.65;;;;;;;;;;5102773;28;20226;-76
2021/03/27 15:29:16;;;;;;;12.15;3.58;;;;;;;;;;5100542;28;20201;-76
2021/03/27 15:31:45;;;;;;;6.03;2.92;;;;;;;;;;5089822;28;20559;-77